Time,TemperatureF,DewpointF,PressureIn,WindDirection,WindDirectionDegrees,WindSpeedMPH,WindSpeedGustMPH,Humidity,HourlyPrecipIn,Conditions,Clouds,dailyrainin,SoftwareType,DateUTC
2013-04-13 00:03:00,38.0,33.0,29.71,West,270,0.0,0.0,83,0.00,,,0.39,,2013-04-13 04:03:00,
2013-04-13 00:12:00,38.0,33.0,29.71,West,270,0.0,0.0,83,0.00,,,0.39,,2013-04-13 04:12:00,
2013-04-13 00:23:00,38.0,33.0,29.71,WSW,248,0.0,0.0,83,0.00,,,0.37,,2013-04-13 04:23:00,
2013-04-13 00:33:00,38.0,34.0,29.71,SW,225,1.0,3.0,84,0.00,,,0.35,,2013-04-13 04:33:00,
2013-04-13 00:42:00,38.0,34.0,29.71,SW,225,1.0,3.0,84,0.00,,,0.35,,2013-04-13 04:42:00,
2013-04-13 00:53:00,38.0,34.0,29.72,West,270,0.0,0.0,84,0.00,,,0.33,,2013-04-13 04:53:00,
2013-04-13 01:02:00,38.0,34.0,29.72,WSW,248,0.0,0.0,84,0.00,,,0.28,,2013-04-13 05:02:00,
2013-04-13 01:12:00,38.0,34.0,29.72,WSW,248,0.0,0.0,84,0.00,,,0.28,,2013-04-13 05:12:00,
2013-04-13 01:22:00,37.0,33.0,29.72,West,270,0.0,0.0,84,0.00,,,0.28,,2013-04-13 05:22:00,
2013-04-13 01:32:00,37.0,33.0,29.73,SW,225,0.0,0.0,84,0.00,,,0.26,,2013-04-13 05:32:00,
2013-04-13 01:43:00,37.0,33.0,29.73,SW,225,0.0,0.0,84,0.00,,,0.26,,2013-04-13 05:43:00,
2013-04-13 01:52:00,37.0,33.0,29.73,West,270,1.0,2.0,84,0.00,,,0.26,,2013-04-13 05:52:00,
2013-04-13 02:02:00,37.0,33.0,29.73,West,270,0.0,0.0,84,0.00,,,0.26,,2013-04-13 06:02:00,
2013-04-13 02:12:00,37.0,33.0,29.73,West,270,0.0,0.0,84,0.00,,,0.26,,2013-04-13 06:12:00,
2013-04-13 02:24:00,37.0,33.0,29.72,SSW,203,0.0,0.0,84,0.00,,,0.24,,2013-04-13 06:24:00,
2013-04-13 02:55:00,37.0,33.0,29.73,WSW,248,0.0,0.0,84,0.00,,,0.20,,2013-04-13 06:55:00,
2013-04-13 03:05:00,37.0,33.0,29.73,WSW,248,1.0,3.0,84,0.00,,,0.18,,2013-04-13 07:05:00,
2013-04-13 03:15:00,37.0,33.0,29.73,WSW,248,1.0,3.0,84,0.00,,,0.18,,2013-04-13 07:15:00,
2013-04-13 03:24:00,37.0,33.0,29.73,WSW,248,5.0,7.0,84,0.00,,,0.12,,2013-04-13 07:24:00,
2013-04-13 03:35:00,37.0,33.0,29.73,WSW,248,2.0,3.0,84,0.00,,,0.10,,2013-04-13 07:35:00,
2013-04-13 03:45:00,37.0,33.0,29.73,WSW,248,2.0,3.0,84,0.00,,,0.10,,2013-04-13 07:45:00,
2013-04-13 03:57:00,37.0,33.0,29.74,SW,225,1.0,2.0,84,0.00,,,0.06,,2013-04-13 07:57:00,
2013-04-13 04:06:00,37.0,33.0,29.74,WSW,248,0.0,0.0,84,0.00,,,0.04,,2013-04-13 08:06:00,
2013-04-13 04:15:00,37.0,33.0,29.74,WSW,248,0.0,0.0,84,0.00,,,0.04,,2013-04-13 08:15:00,
2013-04-13 04:25:00,36.0,32.0,29.73,WSW,248,2.0,5.0,84,0.00,,,0.02,,2013-04-13 08:25:00,
2013-04-13 04:35:00,36.0,32.0,29.74,WSW,248,3.0,6.0,84,0.00,,,0.02,,2013-04-13 08:35:00,
2013-04-13 04:45:00,36.0,32.0,29.74,WSW,248,3.0,6.0,84,0.00,,,0.02,,2013-04-13 08:45:00,
2013-04-13 04:53:00,36.0,32.0,29.74,West,270,0.0,0.0,84,0.00,,,0.00,,2013-04-13 08:53:00,
2013-04-13 05:05:00,36.0,32.0,29.74,SSW,203,1.0,5.0,84,0.00,,,0.00,,2013-04-13 09:05:00,
2013-04-13 05:14:00,36.0,32.0,29.74,SSW,203,1.0,5.0,84,0.00,,,0.00,,2013-04-13 09:14:00,
2013-04-13 05:24:00,36.0,32.0,29.74,SSW,203,0.0,0.0,84,0.00,,,0.00,,2013-04-13 09:24:00,
2013-04-13 05:36:00,36.0,32.0,29.74,SW,225,2.0,3.0,85,0.00,,,0.00,,2013-04-13 09:36:00,
2013-04-13 05:50:00,36.0,32.0,29.74,SW,225,2.0,3.0,85,0.00,,,0.00,,2013-04-13 09:50:00,
2013-04-13 05:55:00,36.0,32.0,29.74,South,180,0.0,0.0,85,0.00,,,0.00,,2013-04-13 09:55:00,
2013-04-13 06:05:00,36.0,32.0,29.74,WSW,248,3.0,6.0,85,0.00,,,0.00,,2013-04-13 10:05:00,
2013-04-13 06:15:00,35.0,31.0,29.74,WSW,248,2.0,6.0,85,0.00,,,0.00,,2013-04-13 10:15:00,
2013-04-13 06:24:00,35.0,31.0,29.74,WSW,248,2.0,6.0,85,0.00,,,0.00,,2013-04-13 10:24:00,
2013-04-13 06:37:00,35.0,31.0,29.74,South,180,0.0,0.0,85,0.00,,,0.00,,2013-04-13 10:37:00,
2013-04-13 06:46:00,35.0,31.0,29.74,South,180,0.0,0.0,85,0.00,,,0.00,,2013-04-13 10:46:00,
2013-04-13 06:55:00,35.0,31.0,29.73,WSW,248,6.0,8.0,86,0.00,,,0.00,,2013-04-13 10:55:00,
2013-04-13 07:06:00,35.0,31.0,29.73,WSW,248,2.0,8.0,86,0.00,,,0.00,,2013-04-13 11:06:00,
2013-04-13 07:13:00,35.0,31.0,29.73,WSW,248,2.0,8.0,86,0.00,,,0.00,,2013-04-13 11:13:00,
2013-04-13 07:24:00,35.0,31.0,29.73,WSW,248,5.0,6.0,86,0.00,,,0.00,,2013-04-13 11:24:00,
2013-04-13 07:34:00,35.0,31.0,29.74,West,270,1.0,5.0,86,0.00,,,0.00,,2013-04-13 11:34:00,
2013-04-13 07:45:00,35.0,31.0,29.74,West,270,1.0,5.0,86,0.00,,,0.00,,2013-04-13 11:45:00,
2013-04-13 07:54:00,35.0,31.0,29.74,WSW,248,1.0,6.0,86,0.00,,,0.00,,2013-04-13 11:54:00,
2013-04-13 08:08:00,35.0,31.0,29.75,SW,225,0.0,0.0,86,0.00,,,0.00,,2013-04-13 12:08:00,
2013-04-13 08:15:00,35.0,31.0,29.75,SW,225,0.0,0.0,86,0.00,,,0.00,,2013-04-13 12:15:00,
2013-04-13 08:25:00,35.0,31.0,29.75,SW,225,2.0,8.0,86,0.00,,,0.00,,2013-04-13 12:25:00,
2013-04-13 08:35:00,35.0,31.0,29.75,SW,225,2.0,5.0,86,0.00,,,0.00,,2013-04-13 12:35:00,
2013-04-13 08:47:00,35.0,31.0,29.75,SW,225,2.0,5.0,86,0.00,,,0.00,,2013-04-13 12:47:00,
2013-04-13 08:55:00,35.0,31.0,29.75,WSW,248,1.0,5.0,85,0.00,,,0.00,,2013-04-13 12:55:00,
2013-04-13 09:06:00,35.0,31.0,29.75,SW,225,2.0,3.0,85,0.00,,,0.00,,2013-04-13 13:06:00,
2013-04-13 09:15:00,35.0,31.0,29.75,SW,225,2.0,3.0,85,0.00,,,0.00,,2013-04-13 13:15:00,
2013-04-13 09:34:00,36.0,32.0,29.75,West,270,3.0,10.0,84,0.00,,,0.00,,2013-04-13 13:34:00,
2013-04-13 09:47:00,36.0,32.0,29.75,West,270,3.0,10.0,84,0.00,,,0.00,,2013-04-13 13:47:00,
2013-04-13 09:54:00,36.0,31.0,29.75,SW,225,2.0,5.0,83,0.00,,,0.00,,2013-04-13 13:54:00,
2013-04-13 10:05:00,37.0,32.0,29.75,SSW,203,7.0,12.0,82,0.00,,,0.00,,2013-04-13 14:05:00,
2013-04-13 10:14:00,37.0,32.0,29.75,SSW,203,7.0,12.0,82,0.00,,,0.00,,2013-04-13 14:14:00,
2013-04-13 10:23:00,37.0,32.0,29.75,SW,225,5.0,13.0,81,0.00,,,0.00,,2013-04-13 14:23:00,
2013-04-13 10:39:00,37.0,31.0,29.75,SW,225,5.0,8.0,80,0.00,,,0.00,,2013-04-13 14:39:00,
2013-04-13 10:46:00,37.0,31.0,29.75,SW,225,5.0,8.0,80,0.00,,,0.00,,2013-04-13 14:46:00,
2013-04-13 10:59:00,37.0,31.0,29.75,WSW,248,1.0,0.0,79,0.00,,,0.00,,2013-04-13 14:59:00,
2013-04-13 11:05:00,38.0,32.0,29.75,WSW,248,5.0,8.0,78,0.00,,,0.00,,2013-04-13 15:05:00,
2013-04-13 11:14:00,38.0,32.0,29.75,WSW,248,3.0,7.0,78,0.00,,,0.00,,2013-04-13 15:14:00,
2013-04-13 11:29:00,38.0,32.0,29.75,WSW,248,3.0,7.0,78,0.00,,,0.00,,2013-04-13 15:29:00,
2013-04-13 11:36:00,38.0,31.0,29.76,West,270,3.0,3.0,77,0.00,,,0.00,,2013-04-13 15:36:00,
2013-04-13 11:44:00,38.0,31.0,29.76,West,270,3.0,3.0,77,0.00,,,0.00,,2013-04-13 15:44:00,
2013-04-13 11:58:00,39.0,33.0,29.75,SSW,203,6.0,10.0,78,0.00,,,0.00,,2013-04-13 15:58:00,
2013-04-13 12:15:00,39.0,32.0,29.76,West,270,7.0,7.0,76,0.00,,,0.00,,2013-04-13 16:15:00,
2013-04-13 12:24:00,39.0,32.0,29.76,SSW,203,7.0,10.0,76,0.00,,,0.00,,2013-04-13 16:24:00,
2013-04-13 12:36:00,38.0,31.0,29.76,West,270,6.0,6.0,76,0.00,,,0.00,,2013-04-13 16:36:00,
2013-04-13 12:45:00,38.0,31.0,29.76,West,270,6.0,6.0,76,0.00,,,0.00,,2013-04-13 16:45:00,
2013-04-13 13:07:00,36.0,30.0,29.77,West,270,1.0,7.0,78,0.00,,,0.00,,2013-04-13 17:07:00,
2013-04-13 13:20:00,36.0,30.0,29.77,West,270,1.0,7.0,78,0.00,,,0.00,,2013-04-13 17:20:00,
2013-04-13 13:37:00,38.0,33.0,29.77,West,270,1.0,5.0,83,0.02,,,0.02,,2013-04-13 17:37:00,
2013-04-13 13:44:00,38.0,33.0,29.77,West,270,1.0,5.0,83,0.02,,,0.02,,2013-04-13 17:44:00,
2013-04-13 14:04:00,37.0,32.0,29.77,WSW,248,0.0,0.0,82,0.02,,,0.02,,2013-04-13 18:04:00,
2013-04-13 14:15:00,37.0,32.0,29.77,WSW,248,1.0,9.0,82,0.02,,,0.02,,2013-04-13 18:15:00,
2013-04-13 14:24:00,39.0,34.0,29.77,WSW,248,7.0,12.0,83,0.02,,,0.02,,2013-04-13 18:24:00,
2013-04-13 14:33:00,38.0,32.0,29.78,SW,225,8.0,8.0,80,0.00,,,0.02,,2013-04-13 18:33:00,
2013-04-13 14:42:00,38.0,32.0,29.78,SW,225,8.0,8.0,80,0.00,,,0.02,,2013-04-13 18:42:00,
2013-04-13 14:53:00,37.0,32.0,29.78,SW,225,3.0,9.0,81,0.00,,,0.02,,2013-04-13 18:53:00,
2013-04-13 15:03:00,38.0,33.0,29.78,West,270,5.0,5.0,82,0.02,,,0.04,,2013-04-13 19:03:00,
2013-04-13 15:12:00,38.0,33.0,29.78,West,270,5.0,5.0,82,0.02,,,0.04,,2013-04-13 19:12:00,
2013-04-13 15:22:00,36.0,31.0,29.79,WSW,248,3.0,7.0,81,0.02,,,0.04,,2013-04-13 19:22:00,
2013-04-13 15:32:00,35.0,30.0,29.79,SSW,203,7.0,10.0,83,0.02,,,0.04,,2013-04-13 19:32:00,
2013-04-13 15:42:00,35.0,30.0,29.79,SSW,203,7.0,10.0,83,0.02,,,0.04,,2013-04-13 19:42:00,
2013-04-13 15:53:00,37.0,33.0,29.80,WSW,248,7.0,10.0,84,0.04,,,0.08,,2013-04-13 19:53:00,
2013-04-13 16:02:00,38.0,34.0,29.79,SW,225,5.0,9.0,85,0.04,,,0.08,,2013-04-13 20:02:00,
2013-04-13 16:12:00,38.0,34.0,29.79,SW,225,5.0,9.0,85,0.04,,,0.08,,2013-04-13 20:12:00,
2013-04-13 16:22:00,39.0,34.0,29.78,West,270,0.0,6.0,83,0.04,,,0.08,,2013-04-13 20:22:00,
2013-04-13 16:32:00,42.0,36.0,29.79,West,270,8.0,13.0,80,0.06,,,0.10,,2013-04-13 20:32:00,
2013-04-13 16:42:00,42.0,36.0,29.79,West,270,8.0,13.0,80,0.06,,,0.10,,2013-04-13 20:42:00,
2013-04-13 16:52:00,41.0,34.0,29.79,WSW,248,9.0,10.0,76,0.02,,,0.10,,2013-04-13 20:52:00,
2013-04-13 17:02:00,40.0,31.0,29.80,WSW,248,8.0,9.0,70,0.02,,,0.10,,2013-04-13 21:02:00,
2013-04-13 17:12:00,40.0,31.0,29.80,WSW,248,8.0,9.0,70,0.02,,,0.10,,2013-04-13 21:12:00,
2013-04-13 17:22:00,39.0,30.0,29.81,West,270,7.0,12.0,70,0.02,,,0.10,,2013-04-13 21:22:00,
2013-04-13 17:33:00,39.0,29.0,29.82,SW,225,3.0,7.0,68,0.00,,,0.10,,2013-04-13 21:33:00,
2013-04-13 17:43:00,39.0,29.0,29.82,SW,225,3.0,7.0,68,0.00,,,0.10,,2013-04-13 21:43:00,
2013-04-13 17:53:00,39.0,29.0,29.83,WSW,248,5.0,8.0,66,0.00,,,0.10,,2013-04-13 21:53:00,
2013-04-13 18:03:00,38.0,27.0,29.83,WSW,248,5.0,15.0,65,0.00,,,0.10,,2013-04-13 22:03:00,
2013-04-13 18:13:00,38.0,27.0,29.83,WSW,248,5.0,15.0,65,0.00,,,0.10,,2013-04-13 22:13:00,
2013-04-13 18:22:00,38.0,28.0,29.84,WSW,248,6.0,10.0,66,0.00,,,0.10,,2013-04-13 22:22:00,
2013-04-13 18:33:00,38.0,28.0,29.84,WNW,293,8.0,10.0,66,0.00,,,0.10,,2013-04-13 22:33:00,
2013-04-13 18:42:00,38.0,28.0,29.84,WNW,293,8.0,10.0,66,0.00,,,0.10,,2013-04-13 22:42:00,
2013-04-13 18:53:00,38.0,27.0,29.85,WSW,248,0.0,2.0,65,0.00,,,0.10,,2013-04-13 22:53:00,
2013-04-13 19:02:00,38.0,27.0,29.86,West,270,1.0,3.0,65,0.00,,,0.10,,2013-04-13 23:02:00,
2013-04-13 19:12:00,38.0,27.0,29.86,WSW,248,1.0,0.0,65,0.00,,,0.10,,2013-04-13 23:12:00,
2013-04-13 19:22:00,38.0,27.0,29.86,WSW,248,1.0,0.0,65,0.00,,,0.10,,2013-04-13 23:22:00,
2013-04-13 19:32:00,38.0,27.0,29.86,West,270,3.0,6.0,64,0.00,,,0.10,,2013-04-13 23:32:00,
2013-04-13 19:42:00,38.0,27.0,29.86,West,270,3.0,6.0,64,0.00,,,0.10,,2013-04-13 23:42:00,
2013-04-13 19:53:00,38.0,27.0,29.86,WSW,248,5.0,8.0,65,0.00,,,0.10,,2013-04-13 23:53:00,
2013-04-13 20:03:00,37.0,26.0,29.86,West,270,2.0,7.0,65,0.00,,,0.10,,2013-04-14 00:03:00,
2013-04-13 20:12:00,37.0,26.0,29.86,West,270,2.0,7.0,65,0.00,,,0.10,,2013-04-14 00:12:00,
2013-04-13 20:22:00,37.0,27.0,29.87,West,270,0.0,0.0,66,0.00,,,0.10,,2013-04-14 00:22:00,
2013-04-13 20:32:00,37.0,27.0,29.88,WSW,248,0.0,0.0,66,0.00,,,0.10,,2013-04-14 00:32:00,
2013-04-13 20:42:00,37.0,27.0,29.88,WSW,248,0.0,0.0,66,0.00,,,0.10,,2013-04-14 00:42:00,
2013-04-13 20:52:00,37.0,27.0,29.88,WSW,248,1.0,0.0,67,0.00,,,0.10,,2013-04-14 00:52:00,
2013-04-13 21:02:00,37.0,27.0,29.88,West,270,0.0,0.0,67,0.00,,,0.10,,2013-04-14 01:02:00,
2013-04-13 21:12:00,37.0,27.0,29.88,West,270,0.0,0.0,67,0.00,,,0.10,,2013-04-14 01:12:00,
2013-04-13 21:22:00,37.0,27.0,29.89,WNW,293,0.0,0.0,68,0.00,,,0.10,,2013-04-14 01:22:00,
2013-04-13 21:32:00,37.0,27.0,29.90,WSW,248,0.0,0.0,68,0.00,,,0.10,,2013-04-14 01:32:00,
2013-04-13 21:42:00,37.0,27.0,29.90,WSW,248,0.0,0.0,68,0.00,,,0.10,,2013-04-14 01:42:00,
2013-04-13 21:52:00,36.0,26.0,29.90,WSW,248,0.0,0.0,68,0.00,,,0.10,,2013-04-14 01:52:00,
2013-04-13 22:02:00,36.0,27.0,29.91,WNW,293,2.0,0.0,69,0.00,,,0.10,,2013-04-14 02:02:00,
2013-04-13 22:12:00,36.0,27.0,29.91,SW,225,1.0,0.0,69,0.00,,,0.10,,2013-04-14 02:12:00,
2013-04-13 22:22:00,36.0,27.0,29.91,SW,225,1.0,0.0,69,0.00,,,0.10,,2013-04-14 02:22:00,
2013-04-13 22:32:00,36.0,27.0,29.92,West,270,0.0,0.0,70,0.00,,,0.10,,2013-04-14 02:32:00,
2013-04-13 22:42:00,36.0,27.0,29.92,West,270,0.0,0.0,70,0.00,,,0.10,,2013-04-14 02:42:00,
2013-04-13 22:52:00,36.0,27.0,29.93,West,270,1.0,0.0,70,0.00,,,0.10,,2013-04-14 02:52:00,
2013-04-13 23:03:00,36.0,27.0,29.93,SW,225,2.0,3.0,70,0.00,,,0.10,,2013-04-14 03:03:00,
2013-04-13 23:12:00,36.0,27.0,29.93,SW,225,2.0,3.0,70,0.00,,,0.10,,2013-04-14 03:12:00,
2013-04-13 23:22:00,36.0,27.0,29.93,SW,225,2.0,8.0,70,0.00,,,0.10,,2013-04-14 03:22:00,
2013-04-13 23:33:00,36.0,27.0,29.94,West,270,0.0,0.0,70,0.00,,,0.10,,2013-04-14 03:33:00,
2013-04-13 23:42:00,36.0,27.0,29.94,West,270,0.0,0.0,70,0.00,,,0.10,,2013-04-14 03:42:00,
2013-04-13 23:53:00,36.0,28.0,29.93,West,270,0.0,0.0,71,0.00,,,0.10,,2013-04-14 03:53:00,